sensor_id;sensor_type;location;lat;lon;timestamp;temperature;humidity
22633;DHT22;11483;55.828;37.488;2023-07-13T00:00:42;13.10;99.90
22633;DHT22;11483;55.828;37.488;2023-07-13T00:03:08;13.10;99.90
22633;DHT22;11483;55.828;37.488;2023-07-13T00:05:34;13.10;99.90
22633;DHT22;11483;55.828;37.488;2023-07-13T00:08:00;13.10;99.90
22633;DHT22;11483;55.828;37.488;2023-07-13T00:10:26;13.10;99.90
22633;DHT22;11483;55.828;37.488;2023-07-13T00:12:52;13.10;99.90
22633;DHT22;11483;55.828;37.488;2023-07-13T00:15:24;13.10;99.90
22633;DHT22;11483;55.828;37.488;2023-07-13T00:17:51;13.10;99.90
22633;DHT22;11483;55.828;37.488;2023-07-13T00:20:18;13.10;99.90
22633;DHT22;11483;55.828;37.488;2023-07-13T00:22:47;13.10;99.90
22633;DHT22;11483;55.828;37.488;2023-07-13T00:25:13;13.10;99.90
22633;DHT22;11483;55.828;37.488;2023-07-13T00:27:38;13.10;99.90
22633;DHT22;11483;55.828;37.488;2023-07-13T00:30:05;13.10;99.90
22633;DHT22;11483;55.828;37.488;2023-07-13T00:32:31;13.10;99.90
22633;DHT22;11483;55.828;37.488;2023-07-13T00:34:57;13.00;99.90
22633;DHT22;11483;55.828;37.488;2023-07-13T00:37:23;13.00;99.90
22633;DHT22;11483;55.828;37.488;2023-07-13T00:39:49;13.10;99.90
22633;DHT22;11483;55.828;37.488;2023-07-13T00:42:15;13.10;99.90
22633;DHT22;11483;55.828;37.488;2023-07-13T00:44:41;13.10;99.90
22633;DHT22;11483;55.828;37.488;2023-07-13T00:47:07;13.10;99.90
22633;DHT22;11483;55.828;37.488;2023-07-13T00:49:35;13.10;99.90
22633;DHT22;11483;55.828;37.488;2023-07-13T00:52:07;13.10;99.90
22633;DHT22;11483;55.828;37.488;2023-07-13T00:54:38;13.10;99.90
22633;DHT22;11483;55.828;37.488;2023-07-13T00:57:08;13.10;99.90
22633;DHT22;11483;55.828;37.488;2023-07-13T00:59:36;13.20;99.90
22633;DHT22;11483;55.828;37.488;2023-07-13T01:02:03;13.20;99.90
22633;DHT22;11483;55.828;37.488;2023-07-13T01:04:30;13.20;99.90
22633;DHT22;11483;55.828;37.488;2023-07-13T01:06:56;13.20;99.90
22633;DHT22;11483;55.828;37.488;2023-07-13T01:09:23;13.20;99.90
22633;DHT22;11483;55.828;37.488;2023-07-13T01:11:49;13.20;99.90
22633;DHT22;11483;55.828;37.488;2023-07-13T01:14:15;13.20;99.90
22633;DHT22;11483;55.828;37.488;2023-07-13T01:16:44;13.20;99.90
22633;DHT22;11483;55.828;37.488;2023-07-13T01:19:36;13.20;99.90
22633;DHT22;11483;55.828;37.488;2023-07-13T01:22:22;13.20;99.90
22633;DHT22;11483;55.828;37.488;2023-07-13T01:24:53;13.30;99.90
22633;DHT22;11483;55.828;37.488;2023-07-13T01:27:25;13.20;99.90
22633;DHT22;11483;55.828;37.488;2023-07-13T01:29:52;13.20;99.90
22633;DHT22;11483;55.828;37.488;2023-07-13T01:32:21;13.20;99.90
22633;DHT22;11483;55.828;37.488;2023-07-13T01:34:50;13.20;99.90
22633;DHT22;11483;55.828;37.488;2023-07-13T01:37:16;13.20;99.90
22633;DHT22;11483;55.828;37.488;2023-07-13T01:39:42;13.20;99.90
22633;DHT22;11483;55.828;37.488;2023-07-13T01:42:08;13.20;99.90
22633;DHT22;11483;55.828;37.488;2023-07-13T01:44:34;13.20;99.90
22633;DHT22;11483;55.828;37.488;2023-07-13T01:47:01;13.20;99.90
22633;DHT22;11483;55.828;37.488;2023-07-13T01:49:26;13.20;99.90
22633;DHT22;11483;55.828;37.488;2023-07-13T01:51:52;13.20;99.90
22633;DHT22;11483;55.828;37.488;2023-07-13T01:54:18;13.20;99.90
22633;DHT22;11483;55.828;37.488;2023-07-13T01:56:44;13.20;99.90
22633;DHT22;11483;55.828;37.488;2023-07-13T01:59:10;13.20;99.90
22633;DHT22;11483;55.828;37.488;2023-07-13T02:01:36;13.30;99.90
22633;DHT22;11483;55.828;37.488;2023-07-13T02:04:02;13.20;99.90
22633;DHT22;11483;55.828;37.488;2023-07-13T02:06:28;13.20;99.90
22633;DHT22;11483;55.828;37.488;2023-07-13T02:08:54;13.30;99.90
22633;DHT22;11483;55.828;37.488;2023-07-13T02:11:20;13.30;99.90
22633;DHT22;11483;55.828;37.488;2023-07-13T02:13:46;13.30;99.90
22633;DHT22;11483;55.828;37.488;2023-07-13T02:16:12;13.30;99.90
22633;DHT22;11483;55.828;37.488;2023-07-13T02:18:38;13.40;99.90
22633;DHT22;11483;55.828;37.488;2023-07-13T02:21:04;13.40;99.90
22633;DHT22;11483;55.828;37.488;2023-07-13T02:23:30;13.40;99.90
22633;DHT22;11483;55.828;37.488;2023-07-13T02:25:57;13.40;99.90
22633;DHT22;11483;55.828;37.488;2023-07-13T02:28:23;13.40;99.90
22633;DHT22;11483;55.828;37.488;2023-07-13T02:30:48;13.40;99.90
22633;DHT22;11483;55.828;37.488;2023-07-13T02:33:14;13.40;99.90
22633;DHT22;11483;55.828;37.488;2023-07-13T02:35:40;13.40;99.90
22633;DHT22;11483;55.828;37.488;2023-07-13T02:38:06;13.40;99.90
22633;DHT22;11483;55.828;37.488;2023-07-13T02:40:32;13.50;99.90
22633;DHT22;11483;55.828;37.488;2023-07-13T02:43:02;13.40;99.90
22633;DHT22;11483;55.828;37.488;2023-07-13T02:45:28;13.50;99.90
22633;DHT22;11483;55.828;37.488;2023-07-13T02:47:53;13.50;99.90
22633;DHT22;11483;55.828;37.488;2023-07-13T02:50:19;13.50;99.90
22633;DHT22;11483;55.828;37.488;2023-07-13T02:52:45;13.50;99.90
22633;DHT22;11483;55.828;37.488;2023-07-13T02:55:11;13.50;99.90
22633;DHT22;11483;55.828;37.488;2023-07-13T02:57:37;13.50;99.90
22633;DHT22;11483;55.828;37.488;2023-07-13T03:00:04;13.50;99.90
22633;DHT22;11483;55.828;37.488;2023-07-13T03:02:34;13.60;99.90
22633;DHT22;11483;55.828;37.488;2023-07-13T03:05:00;13.60;99.90
22633;DHT22;11483;55.828;37.488;2023-07-13T03:07:26;13.50;99.90
22633;DHT22;11483;55.828;37.488;2023-07-13T03:09:56;13.50;99.90
22633;DHT22;11483;55.828;37.488;2023-07-13T03:12:23;13.50;99.90
22633;DHT22;11483;55.828;37.488;2023-07-13T03:14:49;13.50;99.90
22633;DHT22;11483;55.828;37.488;2023-07-13T03:17:15;13.50;99.90
22633;DHT22;11483;55.828;37.488;2023-07-13T03:19:41;13.40;99.90
22633;DHT22;11483;55.828;37.488;2023-07-13T03:22:06;13.40;99.90
22633;DHT22;11483;55.828;37.488;2023-07-13T03:24:34;13.50;99.90
22633;DHT22;11483;55.828;37.488;2023-07-13T03:27:02;13.50;99.90
22633;DHT22;11483;55.828;37.488;2023-07-13T03:29:28;13.50;99.90
22633;DHT22;11483;55.828;37.488;2023-07-13T03:31:53;13.50;99.90
22633;DHT22;11483;55.828;37.488;2023-07-13T03:34:19;13.60;99.90
22633;DHT22;11483;55.828;37.488;2023-07-13T03:36:45;13.60;99.90
22633;DHT22;11483;55.828;37.488;2023-07-13T03:39:11;13.70;99.90
22633;DHT22;11483;55.828;37.488;2023-07-13T03:41:36;13.70;99.90
22633;DHT22;11483;55.828;37.488;2023-07-13T03:44:02;13.70;99.90
22633;DHT22;11483;55.828;37.488;2023-07-13T03:46:28;13.80;99.90
22633;DHT22;11483;55.828;37.488;2023-07-13T03:48:54;13.80;99.90
22633;DHT22;11483;55.828;37.488;2023-07-13T03:51:20;13.80;99.90
22633;DHT22;11483;55.828;37.488;2023-07-13T03:53:47;13.90;99.90
22633;DHT22;11483;55.828;37.488;2023-07-13T03:56:14;13.80;99.90
22633;DHT22;11483;55.828;37.488;2023-07-13T03:58:42;13.90;99.90
22633;DHT22;11483;55.828;37.488;2023-07-13T04:01:09;14.00;99.90
22633;DHT22;11483;55.828;37.488;2023-07-13T04:03:36;14.00;99.90
22633;DHT22;11483;55.828;37.488;2023-07-13T04:06:04;14.00;99.90
22633;DHT22;11483;55.828;37.488;2023-07-13T04:08:33;14.10;99.90
22633;DHT22;11483;55.828;37.488;2023-07-13T04:10:59;14.10;99.90
22633;DHT22;11483;55.828;37.488;2023-07-13T04:13:26;14.10;99.90
22633;DHT22;11483;55.828;37.488;2023-07-13T04:15:53;14.20;99.90
22633;DHT22;11483;55.828;37.488;2023-07-13T04:18:19;14.30;99.90
22633;DHT22;11483;55.828;37.488;2023-07-13T04:20:47;14.30;99.90
22633;DHT22;11483;55.828;37.488;2023-07-13T04:23:13;14.30;99.90
22633;DHT22;11483;55.828;37.488;2023-07-13T04:25:43;14.30;99.90
22633;DHT22;11483;55.828;37.488;2023-07-13T04:28:10;14.30;99.90
22633;DHT22;11483;55.828;37.488;2023-07-13T04:30:35;14.30;99.90
22633;DHT22;11483;55.828;37.488;2023-07-13T04:33:01;14.30;99.90
22633;DHT22;11483;55.828;37.488;2023-07-13T04:35:27;14.40;99.90
22633;DHT22;11483;55.828;37.488;2023-07-13T04:37:53;14.40;99.90
22633;DHT22;11483;55.828;37.488;2023-07-13T04:40:19;14.40;99.90
22633;DHT22;11483;55.828;37.488;2023-07-13T04:42:46;14.50;99.90
22633;DHT22;11483;55.828;37.488;2023-07-13T04:45:13;14.60;99.90
22633;DHT22;11483;55.828;37.488;2023-07-13T04:47:40;14.70;99.90
22633;DHT22;11483;55.828;37.488;2023-07-13T04:50:08;14.80;99.90
22633;DHT22;11483;55.828;37.488;2023-07-13T04:52:34;14.90;99.90
22633;DHT22;11483;55.828;37.488;2023-07-13T04:55:00;15.00;99.90
22633;DHT22;11483;55.828;37.488;2023-07-13T04:57:27;15.10;99.90
22633;DHT22;11483;55.828;37.488;2023-07-13T04:59:53;15.30;99.90
22633;DHT22;11483;55.828;37.488;2023-07-13T05:02:21;15.40;99.90
22633;DHT22;11483;55.828;37.488;2023-07-13T05:04:48;15.60;99.90
22633;DHT22;11483;55.828;37.488;2023-07-13T05:07:14;15.70;99.90
22633;DHT22;11483;55.828;37.488;2023-07-13T05:09:40;15.80;99.90
22633;DHT22;11483;55.828;37.488;2023-07-13T05:12:08;15.90;99.90
22633;DHT22;11483;55.828;37.488;2023-07-13T05:14:34;16.20;99.90
22633;DHT22;11483;55.828;37.488;2023-07-13T05:17:00;16.40;99.90
22633;DHT22;11483;55.828;37.488;2023-07-13T05:19:26;16.50;99.90
22633;DHT22;11483;55.828;37.488;2023-07-13T05:21:51;16.60;99.90
22633;DHT22;11483;55.828;37.488;2023-07-13T05:24:17;16.70;99.90
22633;DHT22;11483;55.828;37.488;2023-07-13T05:26:44;16.80;99.90
22633;DHT22;11483;55.828;37.488;2023-07-13T05:29:10;16.80;99.90
22633;DHT22;11483;55.828;37.488;2023-07-13T05:31:36;16.80;99.90
22633;DHT22;11483;55.828;37.488;2023-07-13T05:34:02;16.80;99.90
22633;DHT22;11483;55.828;37.488;2023-07-13T05:36:28;17.00;99.90
22633;DHT22;11483;55.828;37.488;2023-07-13T05:38:54;17.10;99.90
22633;DHT22;11483;55.828;37.488;2023-07-13T05:41:19;17.30;99.90
22633;DHT22;11483;55.828;37.488;2023-07-13T05:43:45;17.30;99.90
22633;DHT22;11483;55.828;37.488;2023-07-13T05:46:11;17.20;99.90
22633;DHT22;11483;55.828;37.488;2023-07-13T05:48:37;17.30;99.90
22633;DHT22;11483;55.828;37.488;2023-07-13T05:51:03;17.50;99.90
22633;DHT22;11483;55.828;37.488;2023-07-13T05:53:28;17.60;99.90
22633;DHT22;11483;55.828;37.488;2023-07-13T05:55:55;17.60;99.90
22633;DHT22;11483;55.828;37.488;2023-07-13T05:58:21;17.50;99.90
22633;DHT22;11483;55.828;37.488;2023-07-13T06:00:48;17.60;99.90
22633;DHT22;11483;55.828;37.488;2023-07-13T06:03:14;17.70;99.90
22633;DHT22;11483;55.828;37.488;2023-07-13T06:05:40;17.70;99.90
22633;DHT22;11483;55.828;37.488;2023-07-13T06:08:07;17.80;99.90
22633;DHT22;11483;55.828;37.488;2023-07-13T06:10:34;17.90;99.90
22633;DHT22;11483;55.828;37.488;2023-07-13T06:13:00;18.10;99.90
22633;DHT22;11483;55.828;37.488;2023-07-13T06:15:26;18.10;99.90
22633;DHT22;11483;55.828;37.488;2023-07-13T06:17:52;18.20;99.90
22633;DHT22;11483;55.828;37.488;2023-07-13T06:20:18;18.20;99.90
22633;DHT22;11483;55.828;37.488;2023-07-13T06:22:43;18.20;99.90
22633;DHT22;11483;55.828;37.488;2023-07-13T06:25:09;18.20;99.90
22633;DHT22;11483;55.828;37.488;2023-07-13T06:27:35;18.30;99.90
22633;DHT22;11483;55.828;37.488;2023-07-13T06:30:00;18.60;99.90
22633;DHT22;11483;55.828;37.488;2023-07-13T06:32:27;18.90;99.90
22633;DHT22;11483;55.828;37.488;2023-07-13T06:34:53;19.10;99.90
22633;DHT22;11483;55.828;37.488;2023-07-13T06:37:19;19.30;99.90
22633;DHT22;11483;55.828;37.488;2023-07-13T06:39:45;19.40;99.90
22633;DHT22;11483;55.828;37.488;2023-07-13T06:42:10;19.20;99.90
22633;DHT22;11483;55.828;37.488;2023-07-13T06:44:36;19.10;99.90
22633;DHT22;11483;55.828;37.488;2023-07-13T06:47:02;19.00;99.90
22633;DHT22;11483;55.828;37.488;2023-07-13T06:49:28;18.80;99.90
22633;DHT22;11483;55.828;37.488;2023-07-13T06:51:54;18.50;99.90
22633;DHT22;11483;55.828;37.488;2023-07-13T06:54:20;18.40;99.90
22633;DHT22;11483;55.828;37.488;2023-07-13T06:56:46;18.30;99.90
22633;DHT22;11483;55.828;37.488;2023-07-13T06:59:12;18.20;99.90
22633;DHT22;11483;55.828;37.488;2023-07-13T07:01:37;18.20;99.90
22633;DHT22;11483;55.828;37.488;2023-07-13T07:04:03;18.10;99.90
22633;DHT22;11483;55.828;37.488;2023-07-13T07:06:30;18.00;99.90
22633;DHT22;11483;55.828;37.488;2023-07-13T07:08:55;18.20;99.90
22633;DHT22;11483;55.828;37.488;2023-07-13T07:11:25;18.50;99.90
22633;DHT22;11483;55.828;37.488;2023-07-13T07:13:52;18.50;99.90
22633;DHT22;11483;55.828;37.488;2023-07-13T07:16:19;18.50;99.90
22633;DHT22;11483;55.828;37.488;2023-07-13T07:18:45;18.50;99.90
22633;DHT22;11483;55.828;37.488;2023-07-13T07:21:12;18.60;99.90
22633;DHT22;11483;55.828;37.488;2023-07-13T07:23:38;18.80;99.90
22633;DHT22;11483;55.828;37.488;2023-07-13T07:26:04;18.80;99.90
22633;DHT22;11483;55.828;37.488;2023-07-13T07:28:30;18.60;99.90
22633;DHT22;11483;55.828;37.488;2023-07-13T07:30:58;18.60;99.90
22633;DHT22;11483;55.828;37.488;2023-07-13T07:33:24;18.40;99.90
22633;DHT22;11483;55.828;37.488;2023-07-13T07:35:50;18.20;99.90
22633;DHT22;11483;55.828;37.488;2023-07-13T07:38:19;18.10;99.90
22633;DHT22;11483;55.828;37.488;2023-07-13T07:40:45;18.00;99.90
22633;DHT22;11483;55.828;37.488;2023-07-13T07:43:12;17.90;99.90
22633;DHT22;11483;55.828;37.488;2023-07-13T07:45:39;17.80;99.90
22633;DHT22;11483;55.828;37.488;2023-07-13T07:48:06;17.80;99.90
22633;DHT22;11483;55.828;37.488;2023-07-13T07:50:32;17.60;99.90
22633;DHT22;11483;55.828;37.488;2023-07-13T07:52:58;17.60;99.90
22633;DHT22;11483;55.828;37.488;2023-07-13T07:55:25;17.50;99.90
22633;DHT22;11483;55.828;37.488;2023-07-13T07:57:55;17.50;99.90
22633;DHT22;11483;55.828;37.488;2023-07-13T08:00:25;17.40;99.90
22633;DHT22;11483;55.828;37.488;2023-07-13T08:02:50;17.50;99.90
22633;DHT22;11483;55.828;37.488;2023-07-13T08:05:16;17.50;99.90
22633;DHT22;11483;55.828;37.488;2023-07-13T08:07:43;17.50;99.90
22633;DHT22;11483;55.828;37.488;2023-07-13T08:10:09;17.60;99.90
22633;DHT22;11483;55.828;37.488;2023-07-13T08:12:39;17.50;99.90
22633;DHT22;11483;55.828;37.488;2023-07-13T08:15:09;17.60;99.90
22633;DHT22;11483;55.828;37.488;2023-07-13T08:17:35;17.60;99.90
22633;DHT22;11483;55.828;37.488;2023-07-13T08:20:01;17.50;99.90
22633;DHT22;11483;55.828;37.488;2023-07-13T08:22:27;17.40;99.90
22633;DHT22;11483;55.828;37.488;2023-07-13T08:24:53;17.20;99.90
22633;DHT22;11483;55.828;37.488;2023-07-13T08:27:23;17.10;99.90
22633;DHT22;11483;55.828;37.488;2023-07-13T08:29:50;17.10;99.90
22633;DHT22;11483;55.828;37.488;2023-07-13T08:32:17;17.10;99.90
22633;DHT22;11483;55.828;37.488;2023-07-13T08:34:43;17.00;99.90
22633;DHT22;11483;55.828;37.488;2023-07-13T08:37:09;17.00;99.90
22633;DHT22;11483;55.828;37.488;2023-07-13T08:39:35;17.00;99.90
22633;DHT22;11483;55.828;37.488;2023-07-13T08:42:27;17.00;99.90
22633;DHT22;11483;55.828;37.488;2023-07-13T08:45:07;17.10;99.90
22633;DHT22;11483;55.828;37.488;2023-07-13T08:47:39;17.20;99.90
22633;DHT22;11483;55.828;37.488;2023-07-13T08:50:12;17.30;99.90
22633;DHT22;11483;55.828;37.488;2023-07-13T08:52:41;17.40;99.90
22633;DHT22;11483;55.828;37.488;2023-07-13T08:55:20;17.40;99.90
22633;DHT22;11483;55.828;37.488;2023-07-13T08:57:53;17.30;99.90
22633;DHT22;11483;55.828;37.488;2023-07-13T09:00:31;17.30;99.90
22633;DHT22;11483;55.828;37.488;2023-07-13T09:03:00;17.30;99.90
22633;DHT22;11483;55.828;37.488;2023-07-13T09:05:34;17.30;99.90
22633;DHT22;11483;55.828;37.488;2023-07-13T09:16:29;17.00;99.90
22633;DHT22;11483;55.828;37.488;2023-07-13T09:19:01;17.00;99.90
22633;DHT22;11483;55.828;37.488;2023-07-13T09:21:37;16.90;99.90
22633;DHT22;11483;55.828;37.488;2023-07-13T09:24:37;16.90;99.90
22633;DHT22;11483;55.828;37.488;2023-07-13T09:27:13;17.00;99.90
22633;DHT22;11483;55.828;37.488;2023-07-13T09:29:44;16.90;99.90
22633;DHT22;11483;55.828;37.488;2023-07-13T09:32:12;16.90;99.90
22633;DHT22;11483;55.828;37.488;2023-07-13T09:34:40;16.90;99.90
22633;DHT22;11483;55.828;37.488;2023-07-13T09:37:06;16.80;99.90
22633;DHT22;11483;55.828;37.488;2023-07-13T09:39:37;16.80;99.90
22633;DHT22;11483;55.828;37.488;2023-07-13T09:42:14;16.80;99.90
22633;DHT22;11483;55.828;37.488;2023-07-13T09:47:19;16.70;99.90
22633;DHT22;11483;55.828;37.488;2023-07-13T09:49:45;16.60;99.90
22633;DHT22;11483;55.828;37.488;2023-07-13T09:52:14;16.60;99.90
22633;DHT22;11483;55.828;37.488;2023-07-13T09:54:45;16.60;99.90
22633;DHT22;11483;55.828;37.488;2023-07-13T09:57:29;16.50;99.90
22633;DHT22;11483;55.828;37.488;2023-07-13T09:59:56;16.50;99.90
22633;DHT22;11483;55.828;37.488;2023-07-13T10:02:31;16.50;99.90
22633;DHT22;11483;55.828;37.488;2023-07-13T10:05:02;16.40;99.90
22633;DHT22;11483;55.828;37.488;2023-07-13T10:07:30;16.40;99.90
22633;DHT22;11483;55.828;37.488;2023-07-13T10:09:58;16.30;99.90
22633;DHT22;11483;55.828;37.488;2023-07-13T10:12:24;16.30;99.90
22633;DHT22;11483;55.828;37.488;2023-07-13T10:14:56;16.20;99.90
22633;DHT22;11483;55.828;37.488;2023-07-13T10:17:41;16.20;99.90
22633;DHT22;11483;55.828;37.488;2023-07-13T10:20:07;16.10;99.90
22633;DHT22;11483;55.828;37.488;2023-07-13T10:23:08;16.10;99.90
22633;DHT22;11483;55.828;37.488;2023-07-13T10:25:39;16.00;99.90
22633;DHT22;11483;55.828;37.488;2023-07-13T10:28:33;16.00;99.90
22633;DHT22;11483;55.828;37.488;2023-07-13T10:31:01;15.80;99.90
22633;DHT22;11483;55.828;37.488;2023-07-13T10:33:28;15.80;99.90
22633;DHT22;11483;55.828;37.488;2023-07-13T10:36:14;15.80;99.90
22633;DHT22;11483;55.828;37.488;2023-07-13T10:38:41;15.80;99.90
22633;DHT22;11483;55.828;37.488;2023-07-13T10:41:14;15.70;99.90
22633;DHT22;11483;55.828;37.488;2023-07-13T10:43:44;15.70;99.90
22633;DHT22;11483;55.828;37.488;2023-07-13T10:46:14;15.60;99.90
22633;DHT22;11483;55.828;37.488;2023-07-13T10:48:41;15.60;99.90
22633;DHT22;11483;55.828;37.488;2023-07-13T10:51:10;15.60;99.90
22633;DHT22;11483;55.828;37.488;2023-07-13T10:53:38;15.50;99.90
22633;DHT22;11483;55.828;37.488;2023-07-13T10:58:43;15.40;99.90
22633;DHT22;11483;55.828;37.488;2023-07-13T11:01:17;15.30;99.90
22633;DHT22;11483;55.828;37.488;2023-07-13T11:06:17;15.30;99.90
22633;DHT22;11483;55.828;37.488;2023-07-13T11:15:06;15.30;99.90
22633;DHT22;11483;55.828;37.488;2023-07-13T11:17:36;15.40;99.90
22633;DHT22;11483;55.828;37.488;2023-07-13T11:22:47;15.40;99.90
22633;DHT22;11483;55.828;37.488;2023-07-13T11:25:33;15.40;99.90
22633;DHT22;11483;55.828;37.488;2023-07-13T11:28:15;15.40;99.90
22633;DHT22;11483;55.828;37.488;2023-07-13T11:30:49;15.40;99.90
22633;DHT22;11483;55.828;37.488;2023-07-13T11:36:06;15.40;99.90
22633;DHT22;11483;55.828;37.488;2023-07-13T11:38:40;15.40;99.90
22633;DHT22;11483;55.828;37.488;2023-07-13T11:41:17;15.40;99.90
22633;DHT22;11483;55.828;37.488;2023-07-13T11:43:45;15.50;99.90
22633;DHT22;11483;55.828;37.488;2023-07-13T11:46:23;15.50;99.90
22633;DHT22;11483;55.828;37.488;2023-07-13T11:48:50;15.50;99.90
22633;DHT22;11483;55.828;37.488;2023-07-13T11:51:23;15.50;99.90
22633;DHT22;11483;55.828;37.488;2023-07-13T11:53:51;15.40;99.90
22633;DHT22;11483;55.828;37.488;2023-07-13T11:56:17;15.40;99.90
22633;DHT22;11483;55.828;37.488;2023-07-13T11:58:44;15.40;99.90
22633;DHT22;11483;55.828;37.488;2023-07-13T12:01:21;15.40;99.90
22633;DHT22;11483;55.828;37.488;2023-07-13T12:03:48;15.50;99.90
22633;DHT22;11483;55.828;37.488;2023-07-13T12:06:27;15.50;99.90
22633;DHT22;11483;55.828;37.488;2023-07-13T12:09:00;15.60;99.90
22633;DHT22;11483;55.828;37.488;2023-07-13T12:11:27;15.60;99.90
22633;DHT22;11483;55.828;37.488;2023-07-13T12:13:53;15.60;99.90
22633;DHT22;11483;55.828;37.488;2023-07-13T12:16:28;15.60;99.90
22633;DHT22;11483;55.828;37.488;2023-07-13T12:18:56;15.60;99.90
22633;DHT22;11483;55.828;37.488;2023-07-13T12:21:38;15.60;99.90
22633;DHT22;11483;55.828;37.488;2023-07-13T12:24:05;15.60;99.90
22633;DHT22;11483;55.828;37.488;2023-07-13T12:26:39;15.60;99.90
22633;DHT22;11483;55.828;37.488;2023-07-13T12:29:06;15.60;99.90
22633;DHT22;11483;55.828;37.488;2023-07-13T12:31:39;15.60;99.90
22633;DHT22;11483;55.828;37.488;2023-07-13T12:34:09;15.60;99.90
22633;DHT22;11483;55.828;37.488;2023-07-13T12:36:38;15.60;99.90
22633;DHT22;11483;55.828;37.488;2023-07-13T12:39:34;15.60;99.90
22633;DHT22;11483;55.828;37.488;2023-07-13T12:45:05;15.60;99.90
22633;DHT22;11483;55.828;37.488;2023-07-13T12:47:43;15.60;99.90
22633;DHT22;11483;55.828;37.488;2023-07-13T12:50:18;15.70;99.90
22633;DHT22;11483;55.828;37.488;2023-07-13T12:52:51;15.70;99.90
22633;DHT22;11483;55.828;37.488;2023-07-13T12:55:20;15.70;99.90
22633;DHT22;11483;55.828;37.488;2023-07-13T12:57:57;15.70;99.90
22633;DHT22;11483;55.828;37.488;2023-07-13T13:00:33;15.70;99.90
22633;DHT22;11483;55.828;37.488;2023-07-13T13:03:12;15.60;99.90
22633;DHT22;11483;55.828;37.488;2023-07-13T13:05:43;15.60;99.90
22633;DHT22;11483;55.828;37.488;2023-07-13T13:08:11;15.60;99.90
22633;DHT22;11483;55.828;37.488;2023-07-13T13:10:37;15.60;99.90
22633;DHT22;11483;55.828;37.488;2023-07-13T13:13:03;15.60;99.90
22633;DHT22;11483;55.828;37.488;2023-07-13T13:15:29;15.60;99.90
22633;DHT22;11483;55.828;37.488;2023-07-13T13:17:56;15.60;99.90
22633;DHT22;11483;55.828;37.488;2023-07-13T13:20:24;15.60;99.90
22633;DHT22;11483;55.828;37.488;2023-07-13T13:22:51;15.70;99.90
22633;DHT22;11483;55.828;37.488;2023-07-13T13:25:18;15.70;99.90
22633;DHT22;11483;55.828;37.488;2023-07-13T13:27:45;15.70;99.90
22633;DHT22;11483;55.828;37.488;2023-07-13T13:30:16;15.60;99.90
22633;DHT22;11483;55.828;37.488;2023-07-13T13:32:45;15.60;99.90
22633;DHT22;11483;55.828;37.488;2023-07-13T13:35:18;15.50;99.90
22633;DHT22;11483;55.828;37.488;2023-07-13T13:37:46;15.50;99.90
22633;DHT22;11483;55.828;37.488;2023-07-13T13:40:22;15.50;99.90
22633;DHT22;11483;55.828;37.488;2023-07-13T13:42:53;15.50;99.90
22633;DHT22;11483;55.828;37.488;2023-07-13T13:45:20;15.50;99.90
22633;DHT22;11483;55.828;37.488;2023-07-13T13:47:47;15.50;99.90
22633;DHT22;11483;55.828;37.488;2023-07-13T13:50:19;15.50;99.90
22633;DHT22;11483;55.828;37.488;2023-07-13T13:52:46;15.40;99.90
22633;DHT22;11483;55.828;37.488;2023-07-13T13:55:16;15.40;99.90
22633;DHT22;11483;55.828;37.488;2023-07-13T13:57:48;15.40;99.90
22633;DHT22;11483;55.828;37.488;2023-07-13T14:00:15;15.40;99.90
22633;DHT22;11483;55.828;37.488;2023-07-13T14:02:45;15.40;99.90
22633;DHT22;11483;55.828;37.488;2023-07-13T14:05:21;15.40;99.90
22633;DHT22;11483;55.828;37.488;2023-07-13T14:07:47;15.40;99.90
22633;DHT22;11483;55.828;37.488;2023-07-13T14:10:16;15.30;99.90
22633;DHT22;11483;55.828;37.488;2023-07-13T14:12:51;15.30;99.90
22633;DHT22;11483;55.828;37.488;2023-07-13T14:15:28;15.30;99.90
22633;DHT22;11483;55.828;37.488;2023-07-13T14:17:56;15.30;99.90
22633;DHT22;11483;55.828;37.488;2023-07-13T14:20:25;15.40;99.90
22633;DHT22;11483;55.828;37.488;2023-07-13T14:22:52;15.40;99.90
22633;DHT22;11483;55.828;37.488;2023-07-13T14:25:19;15.40;99.90
22633;DHT22;11483;55.828;37.488;2023-07-13T14:27:48;15.40;99.90
22633;DHT22;11483;55.828;37.488;2023-07-13T14:30:16;15.40;99.90
22633;DHT22;11483;55.828;37.488;2023-07-13T14:32:43;15.40;99.90
22633;DHT22;11483;55.828;37.488;2023-07-13T14:35:14;15.40;99.90
22633;DHT22;11483;55.828;37.488;2023-07-13T14:37:41;15.40;99.90
22633;DHT22;11483;55.828;37.488;2023-07-13T14:40:15;15.40;99.90
22633;DHT22;11483;55.828;37.488;2023-07-13T14:42:41;15.40;99.90
22633;DHT22;11483;55.828;37.488;2023-07-13T14:45:15;15.40;99.90
22633;DHT22;11483;55.828;37.488;2023-07-13T14:47:42;15.40;99.90
22633;DHT22;11483;55.828;37.488;2023-07-13T14:50:32;15.40;99.90
22633;DHT22;11483;55.828;37.488;2023-07-13T14:52:58;15.40;99.90
22633;DHT22;11483;55.828;37.488;2023-07-13T14:55:24;15.40;99.90
22633;DHT22;11483;55.828;37.488;2023-07-13T14:57:52;15.40;99.90
22633;DHT22;11483;55.828;37.488;2023-07-13T15:00:20;15.30;99.90
22633;DHT22;11483;55.828;37.488;2023-07-13T15:02:54;15.30;99.90
22633;DHT22;11483;55.828;37.488;2023-07-13T15:05:25;15.20;99.90
22633;DHT22;11483;55.828;37.488;2023-07-13T15:07:53;15.20;99.90
22633;DHT22;11483;55.828;37.488;2023-07-13T15:10:24;15.10;99.90
22633;DHT22;11483;55.828;37.488;2023-07-13T15:12:56;15.10;99.90
22633;DHT22;11483;55.828;37.488;2023-07-13T15:15:23;15.00;99.90
22633;DHT22;11483;55.828;37.488;2023-07-13T15:17:49;15.00;99.90
22633;DHT22;11483;55.828;37.488;2023-07-13T15:22:41;14.90;99.90
22633;DHT22;11483;55.828;37.488;2023-07-13T15:25:28;14.90;99.90
22633;DHT22;11483;55.828;37.488;2023-07-13T15:27:57;14.90;99.90
22633;DHT22;11483;55.828;37.488;2023-07-13T15:30:27;14.90;99.90
22633;DHT22;11483;55.828;37.488;2023-07-13T15:32:53;14.90;99.90
22633;DHT22;11483;55.828;37.488;2023-07-13T15:35:21;15.00;99.90
22633;DHT22;11483;55.828;37.488;2023-07-13T15:37:48;15.00;99.90
22633;DHT22;11483;55.828;37.488;2023-07-13T15:40:16;15.00;99.90
22633;DHT22;11483;55.828;37.488;2023-07-13T15:42:43;15.10;99.90
22633;DHT22;11483;55.828;37.488;2023-07-13T15:45:18;15.10;99.90
22633;DHT22;11483;55.828;37.488;2023-07-13T15:47:45;15.10;99.90
22633;DHT22;11483;55.828;37.488;2023-07-13T15:50:22;15.10;99.90
22633;DHT22;11483;55.828;37.488;2023-07-13T15:52:52;15.10;99.90
22633;DHT22;11483;55.828;37.488;2023-07-13T15:55:18;15.10;99.90
22633;DHT22;11483;55.828;37.488;2023-07-13T15:57:48;15.10;99.90